Time;durP1;ratioP1;P1;durP2;ratioP2;P2;SDS_P1;SDS_P2;PMS_P1;PMS_P2;Temp;Humidity;BMP_temperature;BMP_pressure;BME280_temperature;BME280_humidity;BME280_pressure;Samples;Min_cycle;Max_cycle;Signal;HPM_P1;HPM_P2
2022/06/19 00:02:05;;;;;;;9.68;2.47;;;;;;;;;;5012195;28;20545;-84
2022/06/19 00:04:31;;;;;;;10.32;2.92;;;;;;;;;;5012235;28;20025;-84
2022/06/19 00:06:57;;;;;;;12.23;2.97;;;;;;;;;;5012274;28;20468;-85
2022/06/19 00:09:22;;;;;;;10.15;2.53;;;;;;;;;;5012115;28;20050;-84
2022/06/19 00:11:47;;;;;;;15.15;2.88;;;;;;;;;;5011560;28;20029;-85
2022/06/19 00:14:13;;;;;;;11.55;2.70;;;;;;;;;;5012451;28;20371;-85
2022/06/19 00:16:38;;;;;;;9.93;2.97;;;;;;;;;;5012193;28;20110;-85
2022/06/19 00:19:03;;;;;;;12.88;2.95;;;;;;;;;;5013449;28;20334;-85
2022/06/19 00:21:29;;;;;;;15.85;3.30;;;;;;;;;;5016094;28;20025;-85
2022/06/19 00:23:54;;;;;;;8.82;3.63;;;;;;;;;;5016069;28;20444;-85
2022/06/19 00:26:19;;;;;;;12.60;3.72;;;;;;;;;;5015719;28;20026;-85
2022/06/19 00:28:46;;;;;;;11.70;3.28;;;;;;;;;;5016003;28;20495;-85
2022/06/19 00:31:11;;;;;;;12.98;3.25;;;;;;;;;;5015725;28;20506;-85
2022/06/19 00:33:37;;;;;;;15.20;4.18;;;;;;;;;;5015857;28;20096;-85
2022/06/19 00:36:03;;;;;;;12.70;3.63;;;;;;;;;;5014432;28;20017;-85
2022/06/19 00:38:28;;;;;;;12.25;3.40;;;;;;;;;;5015692;28;20295;-85
2022/06/19 00:40:56;;;;;;;17.25;3.30;;;;;;;;;;5015235;28;20059;-85
2022/06/19 00:43:22;;;;;;;11.52;3.20;;;;;;;;;;5015464;28;20053;-85
2022/06/19 00:45:50;;;;;;;11.63;3.40;;;;;;;;;;5015509;28;20057;-85
2022/06/19 00:48:22;;;;;;;10.13;3.35;;;;;;;;;;5015425;28;20018;-85
2022/06/19 00:50:47;;;;;;;;;;;;;;;;;;5014736;28;20018;-84
2022/06/19 00:53:14;;;;;;;8.35;2.75;;;;;;;;;;5015592;28;19909;-84
2022/06/19 00:55:41;;;;;;;11.77;3.35;;;;;;;;;;5015091;28;20026;-84
2022/06/19 00:58:10;;;;;;;18.17;3.03;;;;;;;;;;5015676;28;20021;-85
2022/06/19 01:00:36;;;;;;;15.30;4.30;;;;;;;;;;5015319;28;20022;-84
2022/06/19 01:03:04;;;;;;;10.10;3.80;;;;;;;;;;5015234;28;20048;-84
2022/06/19 01:05:30;;;;;;;8.45;3.40;;;;;;;;;;5015051;28;20021;-84
2022/06/19 01:07:57;;;;;;;9.70;3.85;;;;;;;;;;5014982;28;20018;-84
2022/06/19 01:10:23;;;;;;;13.07;4.22;;;;;;;;;;5013586;28;20030;-84
2022/06/19 01:12:48;;;;;;;10.43;3.50;;;;;;;;;;5013694;28;20029;-84
2022/06/19 01:15:15;;;;;;;12.40;3.70;;;;;;;;;;5015161;28;20498;-84
2022/06/19 01:17:41;;;;;;;13.23;3.63;;;;;;;;;;5015003;28;20113;-84
2022/06/19 01:20:09;;;;;;;15.32;3.65;;;;;;;;;;5015177;28;20017;-84
2022/06/19 01:22:43;;;;;;;11.50;3.67;;;;;;;;;;5014642;28;20025;-84
2022/06/19 01:25:16;;;;;;;14.90;3.60;;;;;;;;;;5014672;28;20026;-84
2022/06/19 01:30:34;;;;;;;11.27;3.97;;;;;;;;;;5013655;28;20118;-84
2022/06/19 01:33:00;;;;;;;15.73;2.85;;;;;;;;;;5014631;28;20041;-85
2022/06/19 01:35:27;;;;;;;19.80;3.35;;;;;;;;;;5013282;28;20109;-84
2022/06/19 01:37:54;;;;;;;13.43;2.80;;;;;;;;;;5014491;28;20029;-84
2022/06/19 01:40:29;;;;;;;13.93;3.33;;;;;;;;;;5014173;28;20017;-84
2022/06/19 01:42:54;;;;;;;14.90;2.88;;;;;;;;;;5014479;28;20105;-84
2022/06/19 01:45:20;;;;;;;16.17;2.78;;;;;;;;;;5014517;28;20105;-84
2022/06/19 01:47:45;;;;;;;8.82;2.83;;;;;;;;;;5014332;28;20022;-84
2022/06/19 01:50:13;;;;;;;15.65;2.47;;;;;;;;;;5012654;28;20037;-84
2022/06/19 01:52:38;;;;;;;15.30;2.28;;;;;;;;;;5013373;28;20270;-84
2022/06/19 01:55:04;;;;;;;10.10;2.20;;;;;;;;;;5014043;28;20232;-84
2022/06/19 01:57:30;;;;;;;13.60;2.35;;;;;;;;;;5014353;28;20025;-84
2022/06/19 01:59:57;;;;;;;20.65;2.67;;;;;;;;;;5014118;28;20014;-84
2022/06/19 02:02:23;;;;;;;16.02;2.38;;;;;;;;;;5013940;28;20032;-84
2022/06/19 02:04:48;;;;;;;18.90;2.67;;;;;;;;;;5014245;28;20010;-84
2022/06/19 02:07:17;;;;;;;14.15;2.45;;;;;;;;;;5014167;28;20044;-84
2022/06/19 02:09:44;;;;;;;28.80;3.80;;;;;;;;;;5013539;28;20056;-84
2022/06/19 02:12:10;;;;;;;23.08;4.05;;;;;;;;;;5013952;28;20034;-84
2022/06/19 02:14:35;;;;;;;19.38;2.72;;;;;;;;;;5013889;28;20053;-85
2022/06/19 02:17:08;;;;;;;12.50;2.67;;;;;;;;;;5013913;28;20049;-85
2022/06/19 02:19:34;;;;;;;19.05;3.28;;;;;;;;;;5013975;28;20570;-84
2022/06/19 02:21:59;;;;;;;15.30;2.60;;;;;;;;;;5013662;28;20419;-84
2022/06/19 02:24:26;;;;;;;14.52;2.85;;;;;;;;;;5013421;28;20024;-85
2022/06/19 02:26:52;;;;;;;15.05;2.10;;;;;;;;;;5013815;28;20049;-84
2022/06/19 02:29:18;;;;;;;13.55;2.58;;;;;;;;;;5013203;28;20480;-84
2022/06/19 02:31:46;;;;;;;20.13;2.90;;;;;;;;;;5013467;28;20200;-85
2022/06/19 02:34:16;;;;;;;17.33;3.20;;;;;;;;;;5013937;28;20022;-85
2022/06/19 02:36:43;;;;;;;16.13;2.88;;;;;;;;;;5013787;28;20026;-85
2022/06/19 02:39:27;;;;;;;12.70;2.88;;;;;;;;;;5013542;28;20415;-84
2022/06/19 02:42:10;;;;;;;14.40;2.50;;;;;;;;;;5013067;28;20022;-84
2022/06/19 02:44:38;;;;;;;11.90;2.97;;;;;;;;;;5013540;28;20030;-84
2022/06/19 02:47:03;;;;;;;18.70;2.97;;;;;;;;;;5013347;28;20018;-83
2022/06/19 02:49:29;;;;;;;15.95;3.50;;;;;;;;;;5013176;28;20034;-84
2022/06/19 02:51:54;;;;;;;16.90;2.70;;;;;;;;;;5013223;28;20053;-84
2022/06/19 02:54:20;;;;;;;15.15;2.50;;;;;;;;;;5013318;28;20014;-84
2022/06/19 02:56:45;;;;;;;7.97;2.03;;;;;;;;;;5013240;28;20457;-84
2022/06/19 02:59:10;;;;;;;12.52;2.13;;;;;;;;;;5012528;28;20275;-84
2022/06/19 03:01:36;;;;;;;11.43;2.08;;;;;;;;;;5012979;28;20056;-84
2022/06/19 03:04:01;;;;;;;13.43;2.33;;;;;;;;;;5013006;28;20034;-84
2022/06/19 03:06:26;;;;;;;10.70;2.20;;;;;;;;;;5013069;28;20263;-85
2022/06/19 03:08:51;;;;;;;13.32;2.85;;;;;;;;;;5012929;28;20018;-85
2022/06/19 03:11:16;;;;;;;15.70;2.30;;;;;;;;;;5013002;28;20021;-85
2022/06/19 03:13:42;;;;;;;12.27;2.43;;;;;;;;;;5012827;28;20256;-85
2022/06/19 03:16:07;;;;;;;11.70;1.97;;;;;;;;;;5011299;28;20267;-85
2022/06/19 03:18:33;;;;;;;20.77;2.28;;;;;;;;;;5012684;28;20270;-85
2022/06/19 03:20:58;;;;;;;12.98;2.58;;;;;;;;;;5012601;28;20045;-85
2022/06/19 03:23:23;;;;;;;13.05;2.58;;;;;;;;;;5012724;28;20025;-84
2022/06/19 03:25:49;;;;;;;10.90;1.90;;;;;;;;;;5012421;28;20468;-85
2022/06/19 03:28:14;;;;;;;29.83;3.03;;;;;;;;;;5012512;28;20274;-85
2022/06/19 03:30:39;;;;;;;12.88;2.35;;;;;;;;;;5012681;28;20275;-85
2022/06/19 03:33:05;;;;;;;26.10;2.50;;;;;;;;;;5012525;28;20061;-85
2022/06/19 03:35:31;;;;;;;11.20;2.15;;;;;;;;;;5012403;28;20726;-85
2022/06/19 03:37:56;;;;;;;8.48;2.00;;;;;;;;;;5012528;28;20024;-85
2022/06/19 03:40:21;;;;;;;6.20;2.00;;;;;;;;;;5012549;28;20069;-85
2022/06/19 03:42:46;;;;;;;9.83;1.87;;;;;;;;;;5012136;28;20374;-85
2022/06/19 03:45:12;;;;;;;15.30;2.20;;;;;;;;;;5012701;28;20354;-85
2022/06/19 03:47:37;;;;;;;13.55;1.90;;;;;;;;;;5012271;28;20030;-85
2022/06/19 03:50:03;;;;;;;12.95;1.73;;;;;;;;;;5012230;28;20026;-85
2022/06/19 03:52:28;;;;;;;9.23;2.00;;;;;;;;;;5012172;28;20026;-85
2022/06/19 03:54:54;;;;;;;19.05;2.47;;;;;;;;;;5010158;28;20061;-84
2022/06/19 03:57:20;;;;;;;6.88;1.85;;;;;;;;;;5011995;28;20018;-84
2022/06/19 03:59:45;;;;;;;14.17;2.20;;;;;;;;;;5012524;28;20482;-84
2022/06/19 04:02:11;;;;;;;11.48;1.85;;;;;;;;;;5010877;28;20657;-84
2022/06/19 04:04:36;;;;;;;13.43;2.22;;;;;;;;;;5012063;28;20021;-84
2022/06/19 04:07:02;;;;;;;15.07;3.05;;;;;;;;;;5012107;28;20511;-84
2022/06/19 04:09:27;;;;;;;6.53;1.95;;;;;;;;;;5012121;28;20049;-85
2022/06/19 04:11:52;;;;;;;9.20;2.05;;;;;;;;;;5012165;28;20443;-85
2022/06/19 04:14:18;;;;;;;14.20;2.07;;;;;;;;;;5012405;28;20053;-85
2022/06/19 04:16:43;;;;;;;12.63;2.17;;;;;;;;;;5012305;28;20271;-86
2022/06/19 04:19:08;;;;;;;13.07;2.63;;;;;;;;;;5010069;28;20274;-85
2022/06/19 04:21:38;;;;;;;12.55;1.85;;;;;;;;;;5011498;28;20034;-85
2022/06/19 04:24:04;;;;;;;10.68;2.28;;;;;;;;;;5011600;28;20046;-85
2022/06/19 04:26:31;;;;;;;13.50;2.10;;;;;;;;;;5011748;28;20018;-85
2022/06/19 04:28:56;;;;;;;9.35;2.05;;;;;;;;;;5012090;28;20017;-85
2022/06/19 04:31:22;;;;;;;13.43;2.05;;;;;;;;;;5012345;28;20097;-85
2022/06/19 04:33:47;;;;;;;6.70;1.58;;;;;;;;;;5011754;28;20424;-86
2022/06/19 04:36:15;;;;;;;7.30;1.67;;;;;;;;;;5011979;28;20436;-85
2022/06/19 04:38:41;;;;;;;12.70;2.28;;;;;;;;;;5011813;28;20255;-85
2022/06/19 04:41:12;;;;;;;11.55;2.15;;;;;;;;;;5011630;28;20104;-85
2022/06/19 04:43:37;;;;;;;11.98;2.30;;;;;;;;;;5011794;28;20127;-85
2022/06/19 04:46:04;;;;;;;8.93;2.20;;;;;;;;;;5011820;28;20133;-85
2022/06/19 04:48:29;;;;;;;7.07;1.42;;;;;;;;;;5011391;28;20026;-85
2022/06/19 04:50:54;;;;;;;12.65;1.90;;;;;;;;;;5011426;28;20025;-85
2022/06/19 04:53:19;;;;;;;15.00;1.70;;;;;;;;;;5011439;28;20017;-85
2022/06/19 04:55:45;;;;;;;15.07;2.20;;;;;;;;;;5011747;28;20029;-85
2022/06/19 04:58:10;;;;;;;11.35;1.70;;;;;;;;;;5011690;28;20252;-85
2022/06/19 05:00:35;;;;;;;10.23;2.10;;;;;;;;;;5011575;28;20022;-85
2022/06/19 05:03:00;;;;;;;13.30;2.57;;;;;;;;;;5011073;28;20268;-85
2022/06/19 05:05:26;;;;;;;14.65;2.53;;;;;;;;;;5013616;28;20251;-85
2022/06/19 05:07:51;;;;;;;9.55;1.58;;;;;;;;;;5015451;28;20033;-85
2022/06/19 05:10:16;;;;;;;10.70;1.43;;;;;;;;;;5015458;28;20045;-85
2022/06/19 05:12:41;;;;;;;6.60;1.58;;;;;;;;;;5015242;28;20252;-85
2022/06/19 05:15:07;;;;;;;15.32;2.00;;;;;;;;;;5015199;28;20515;-85
2022/06/19 05:17:33;;;;;;;9.10;1.58;;;;;;;;;;5014768;28;20018;-86
2022/06/19 05:19:58;;;;;;;9.98;1.88;;;;;;;;;;5015018;28;20048;-85
2022/06/19 05:22:24;;;;;;;8.25;1.50;;;;;;;;;;5013571;28;20033;-85
2022/06/19 05:24:49;;;;;;;9.75;1.50;;;;;;;;;;5015012;28;20372;-85
2022/06/19 05:27:14;;;;;;;10.82;2.60;;;;;;;;;;5014699;28;20018;-85
2022/06/19 05:29:39;;;;;;;12.03;1.90;;;;;;;;;;5014949;28;20041;-85
2022/06/19 05:32:05;;;;;;;11.75;1.70;;;;;;;;;;5014596;28;20271;-86
2022/06/19 05:34:31;;;;;;;8.48;2.17;;;;;;;;;;5014646;28;20472;-85
2022/06/19 05:36:56;;;;;;;9.68;2.42;;;;;;;;;;5015178;28;20021;-85
2022/06/19 05:39:21;;;;;;;13.13;1.90;;;;;;;;;;5015210;28;20562;-85
2022/06/19 05:41:47;;;;;;;8.20;1.50;;;;;;;;;;5013169;28;20341;-85
2022/06/19 05:44:12;;;;;;;12.97;1.90;;;;;;;;;;5014463;28;20419;-85
2022/06/19 05:46:37;;;;;;;9.27;2.50;;;;;;;;;;5014160;28;20595;-85
2022/06/19 05:49:02;;;;;;;8.03;1.33;;;;;;;;;;5014161;28;20025;-85
2022/06/19 05:51:28;;;;;;;13.65;1.85;;;;;;;;;;5014435;28;20843;-85
2022/06/19 05:53:55;;;;;;;13.25;2.08;;;;;;;;;;5013117;28;20017;-85
2022/06/19 05:56:20;;;;;;;11.45;2.17;;;;;;;;;;5014426;28;20067;-84
2022/06/19 05:58:45;;;;;;;12.20;1.75;;;;;;;;;;5014354;28;20022;-85
2022/06/19 06:01:11;;;;;;;11.85;1.88;;;;;;;;;;5012764;28;20482;-85
2022/06/19 06:03:37;;;;;;;12.57;2.33;;;;;;;;;;5014227;28;20083;-85
2022/06/19 06:06:07;;;;;;;15.00;2.45;;;;;;;;;;5012960;28;20047;-85
2022/06/19 06:08:36;;;;;;;13.23;1.75;;;;;;;;;;5014313;28;20043;-85
2022/06/19 06:11:01;;;;;;;7.90;2.10;;;;;;;;;;5029268;28;20061;-85
2022/06/19 06:13:29;;;;;;;11.65;2.05;;;;;;;;;;5014224;28;20435;-85
2022/06/19 06:15:54;;;;;;;10.77;1.60;;;;;;;;;;5013465;28;20026;-85
2022/06/19 06:18:19;;;;;;;12.50;1.83;;;;;;;;;;5013527;28;20141;-85
2022/06/19 06:20:52;;;;;;;6.53;1.85;;;;;;;;;;5011674;28;20753;-84
2022/06/19 06:23:18;;;;;;;8.27;1.83;;;;;;;;;;5013438;28;20041;-85
2022/06/19 06:25:44;;;;;;;11.10;3.23;;;;;;;;;;5013766;28;20030;-85
2022/06/19 06:28:09;;;;;;;7.18;1.35;;;;;;;;;;5013837;28;20260;-85
2022/06/19 06:30:35;;;;;;;8.47;1.37;;;;;;;;;;5013647;28;20545;-85
2022/06/19 06:33:00;;;;;;;16.98;1.88;;;;;;;;;;5012531;28;20773;-84
2022/06/19 06:35:25;;;;;;;10.80;1.88;;;;;;;;;;5013179;28;20014;-85
2022/06/19 06:37:50;;;;;;;11.30;2.38;;;;;;;;;;5013032;28;20026;-85
2022/06/19 06:40:16;;;;;;;10.90;2.27;;;;;;;;;;5011570;28;20138;-84
2022/06/19 06:42:41;;;;;;;9.00;1.35;;;;;;;;;;5012474;28;20290;-84
2022/06/19 06:45:07;;;;;;;7.90;1.87;;;;;;;;;;5011480;28;20022;-85
2022/06/19 06:47:32;;;;;;;16.35;2.33;;;;;;;;;;5010681;28;20285;-84
2022/06/19 06:49:57;;;;;;;10.23;1.73;;;;;;;;;;5011768;28;20034;-84
2022/06/19 06:52:23;;;;;;;13.67;1.80;;;;;;;;;;5010407;28;20053;-85
2022/06/19 06:54:48;;;;;;;11.67;2.33;;;;;;;;;;5010304;28;20267;-85
2022/06/19 06:57:13;;;;;;;11.17;1.37;;;;;;;;;;5009177;28;20259;-85
2022/06/19 06:59:38;;;;;;;9.57;1.50;;;;;;;;;;5011595;28;20275;-85
2022/06/19 07:02:05;;;;;;;14.10;1.70;;;;;;;;;;5007216;28;20484;-85
2022/06/19 07:04:30;;;;;;;7.93;1.77;;;;;;;;;;5011345;28;20320;-85
2022/06/19 07:06:55;;;;;;;8.95;1.63;;;;;;;;;;5008876;28;20480;-85
2022/06/19 07:09:20;;;;;;;9.82;1.95;;;;;;;;;;5011461;28;20010;-86
2022/06/19 07:11:46;;;;;;;12.40;2.63;;;;;;;;;;5010345;28;20033;-85
2022/06/19 07:14:12;;;;;;;11.40;2.03;;;;;;;;;;5011421;28;20407;-85
2022/06/19 07:16:37;;;;;;;13.48;2.15;;;;;;;;;;5011496;28;20025;-85
2022/06/19 07:19:03;;;;;;;8.15;1.67;;;;;;;;;;5009642;28;20018;-85
2022/06/19 07:21:28;;;;;;;14.65;2.35;;;;;;;;;;5009752;28;20091;-86
2022/06/19 07:23:53;;;;;;;8.93;1.65;;;;;;;;;;5009312;28;20021;-86
2022/06/19 07:26:20;;;;;;;4.43;1.17;;;;;;;;;;5009526;28;20050;-85
2022/06/19 07:28:46;;;;;;;16.08;2.40;;;;;;;;;;5007289;28;20029;-86
2022/06/19 07:31:12;;;;;;;8.38;1.67;;;;;;;;;;5011545;28;20034;-84
2022/06/19 07:33:38;;;;;;;9.25;1.50;;;;;;;;;;5010312;28;20029;-85
2022/06/19 07:36:08;;;;;;;7.70;1.55;;;;;;;;;;5010460;28;20034;-85
2022/06/19 07:38:33;;;;;;;5.93;1.30;;;;;;;;;;5010237;28;20022;-85
2022/06/19 07:40:58;;;;;;;9.70;1.35;;;;;;;;;;5011649;28;20482;-86
2022/06/19 07:43:25;;;;;;;8.97;1.53;;;;;;;;;;5010100;28;20115;-86
2022/06/19 07:45:51;;;;;;;22.73;2.78;;;;;;;;;;5010915;28;20317;-87
2022/06/19 07:51:00;;;;;;;7.30;2.20;;;;;;;;;;5010747;28;20041;-85
2022/06/19 07:53:25;;;;;;;9.43;2.07;;;;;;;;;;5010726;28;20483;-85
2022/06/19 07:55:50;;;;;;;11.00;2.30;;;;;;;;;;5010564;28;20768;-85
2022/06/19 07:58:15;;;;;;;9.33;1.90;;;;;;;;;;5011260;28;20329;-85
2022/06/19 08:00:41;;;;;;;7.28;2.10;;;;;;;;;;5012127;28;20271;-84
2022/06/19 08:03:06;;;;;;;9.55;2.00;;;;;;;;;;5010834;28;20050;-85
2022/06/19 08:05:33;;;;;;;12.07;2.47;;;;;;;;;;5011453;28;20022;-86
2022/06/19 08:07:59;;;;;;;8.40;2.00;;;;;;;;;;5009861;28;20279;-86
2022/06/19 08:10:43;;;;;;;7.95;2.03;;;;;;;;;;5011229;28;20071;-86
2022/06/19 08:13:09;;;;;;;10.82;2.28;;;;;;;;;;5011522;28;20028;-85
2022/06/19 08:15:35;;;;;;;6.25;1.48;;;;;;;;;;5011627;28;20034;-86
2022/06/19 08:18:01;;;;;;;7.20;2.05;;;;;;;;;;5011936;28;20025;-86
2022/06/19 08:20:26;;;;;;;5.97;1.83;;;;;;;;;;5011888;28;20097;-87
2022/06/19 08:22:51;;;;;;;5.80;1.88;;;;;;;;;;5010586;28;20103;-86
2022/06/19 08:25:18;;;;;;;4.93;1.30;;;;;;;;;;5011485;28;20015;-87
2022/06/19 08:27:47;;;;;;;9.40;1.50;;;;;;;;;;5011193;28;20729;-86
2022/06/19 08:30:14;;;;;;;7.68;1.63;;;;;;;;;;5011313;28;20460;-86
2022/06/19 08:32:39;;;;;;;4.18;0.90;;;;;;;;;;5010747;28;20026;-86
2022/06/19 08:35:05;;;;;;;10.45;1.25;;;;;;;;;;5011774;28;20028;-86
2022/06/19 08:37:31;;;;;;;4.22;0.80;;;;;;;;;;5011497;28;20472;-86
2022/06/19 08:39:56;;;;;;;4.70;0.77;;;;;;;;;;5012791;28;20244;-86
2022/06/19 08:42:35;;;;;;;8.05;1.05;;;;;;;;;;5013347;28;20153;-86
2022/06/19 08:45:16;;;;;;;3.53;0.70;;;;;;;;;;5005006;28;20018;-86
2022/06/19 08:47:41;;;;;;;3.15;0.90;;;;;;;;;;5015245;28;20021;-86
2022/06/19 08:50:16;;;;;;;3.13;1.10;;;;;;;;;;5012363;28;20029;-86
2022/06/19 08:53:02;;;;;;;6.00;1.63;;;;;;;;;;5009804;28;20032;-86
2022/06/19 08:55:43;;;;;;;3.47;0.77;;;;;;;;;;5012083;28;20026;-86
2022/06/19 08:58:15;;;;;;;5.57;1.25;;;;;;;;;;5014646;28;20326;-86
2022/06/19 09:00:51;;;;;;;5.55;1.10;;;;;;;;;;5015240;28;20400;-87
2022/06/19 09:03:17;;;;;;;7.38;1.88;;;;;;;;;;5014846;28;20460;-86
2022/06/19 09:06:01;;;;;;;4.27;0.80;;;;;;;;;;5013940;28;20104;-86
2022/06/19 09:08:31;;;;;;;4.25;1.40;;;;;;;;;;5015095;28;20022;-86
2022/06/19 09:10:57;;;;;;;6.60;0.82;;;;;;;;;;5014862;28;20384;-86
2022/06/19 09:13:38;;;;;;;3.03;0.93;;;;;;;;;;5014455;28;20029;-86
2022/06/19 09:16:12;;;;;;;5.18;1.52;;;;;;;;;;5014289;28;20025;-86
2022/06/19 09:18:39;;;;;;;4.43;0.80;;;;;;;;;;5004872;28;20014;-87
2022/06/19 09:21:08;;;;;;;6.03;1.60;;;;;;;;;;5013399;28;20387;-86
2022/06/19 09:23:50;;;;;;;4.78;1.00;;;;;;;;;;5009484;28;20026;-85
2022/06/19 09:26:21;;;;;;;5.00;1.00;;;;;;;;;;5009533;28;20025;-87
2022/06/19 09:29:03;;;;;;;4.25;1.00;;;;;;;;;;5018538;28;20041;-87
2022/06/19 09:31:34;;;;;;;2.92;0.80;;;;;;;;;;5008840;28;20041;-86
2022/06/19 09:34:11;;;;;;;5.20;1.00;;;;;;;;;;5013764;28;20097;-86
2022/06/19 09:36:40;;;;;;;4.78;1.00;;;;;;;;;;5014217;28;20053;-86
2022/06/19 09:39:07;;;;;;;2.92;1.10;;;;;;;;;;5009979;28;20495;-86
2022/06/19 09:41:54;;;;;;;6.40;1.50;;;;;;;;;;5013965;28;20029;-86
2022/06/19 09:44:27;;;;;;;2.88;0.88;;;;;;;;;;5014543;28;20037;-86
2022/06/19 09:47:15;;;;;;;5.57;1.02;;;;;;;;;;5014237;28;20060;-87
2022/06/19 09:49:43;;;;;;;5.93;0.98;;;;;;;;;;5000952;28;20705;-87
2022/06/19 09:52:35;;;;;;;4.38;0.73;;;;;;;;;;5013230;28;20101;-87
2022/06/19 09:55:03;;;;;;;3.65;0.82;;;;;;;;;;5009799;28;20396;-86
2022/06/19 09:57:34;;;;;;;4.63;0.90;;;;;;;;;;5009280;28;20477;-86
2022/06/19 09:59:59;;;;;;;;;;;;;;;;;;4995099;28;20061;-86
2022/06/19 10:03:03;;;;;;;3.58;0.80;;;;;;;;;;4994579;28;19948;-87
2022/06/19 10:05:28;;;;;;;5.43;0.50;;;;;;;;;;5011945;28;20109;-87
2022/06/19 10:07:56;;;;;;;2.93;1.00;;;;;;;;;;4995575;28;20042;-87
2022/06/19 10:10:27;;;;;;;4.60;0.90;;;;;;;;;;5003810;28;20473;-87
2022/06/19 10:12:53;;;;;;;3.20;0.85;;;;;;;;;;4994386;28;20027;-87
2022/06/19 10:15:22;;;;;;;3.90;0.65;;;;;;;;;;4994673;28;20029;-87
2022/06/19 10:17:57;;;;;;;4.35;0.65;;;;;;;;;;4994582;28;20023;-87
2022/06/19 10:20:41;;;;;;;6.68;0.93;;;;;;;;;;4992579;28;20015;-87
2022/06/19 10:23:15;;;;;;;4.18;1.10;;;;;;;;;;4993086;28;20027;-87
2022/06/19 10:25:40;;;;;;;4.75;0.80;;;;;;;;;;4994491;28;20105;-87
2022/06/19 10:28:15;;;;;;;3.00;0.77;;;;;;;;;;4994302;28;20443;-87
2022/06/19 10:30:47;;;;;;;4.38;1.10;;;;;;;;;;4994241;28;20290;-87
2022/06/19 10:33:24;;;;;;;4.10;0.90;;;;;;;;;;4994044;28;20023;-87
2022/06/19 10:35:52;;;;;;;6.15;0.98;;;;;;;;;;4993861;28;20018;-87
2022/06/19 10:38:17;;;;;;;4.68;0.70;;;;;;;;;;4993987;28;20019;-87
2022/06/19 10:40:43;;;;;;;4.87;0.90;;;;;;;;;;4992548;28;20030;-87
2022/06/19 10:43:11;;;;;;;4.47;1.20;;;;;;;;;;4994024;28;20022;-87
2022/06/19 10:45:41;;;;;;;3.42;1.08;;;;;;;;;;4994215;28;20018;-87
2022/06/19 10:48:18;;;;;;;6.22;0.68;;;;;;;;;;4992692;28;20072;-87
2022/06/19 10:50:47;;;;;;;4.93;1.00;;;;;;;;;;4993771;28;20037;-87
2022/06/19 10:53:33;;;;;;;5.30;1.00;;;;;;;;;;4993795;28;20170;-87
2022/06/19 10:56:16;;;;;;;3.88;0.93;;;;;;;;;;4993742;28;20022;-87
2022/06/19 10:58:41;;;;;;;7.18;0.90;;;;;;;;;;4993979;28;20401;-87
2022/06/19 11:01:08;;;;;;;5.22;0.73;;;;;;;;;;4993318;28;20065;-87
2022/06/19 11:06:22;;;;;;;7.05;1.20;;;;;;;;;;4993446;28;20400;-86
2022/06/19 11:08:50;;;;;;;6.47;1.15;;;;;;;;;;4993435;28;20021;-87
2022/06/19 11:11:17;;;;;;;4.10;0.70;;;;;;;;;;4993121;28;20058;-87
2022/06/19 11:13:59;;;;;;;4.20;0.80;;;;;;;;;;4993406;28;20015;-86
2022/06/19 11:16:25;;;;;;;3.22;1.00;;;;;;;;;;4993134;28;20030;-87
2022/06/19 11:18:51;;;;;;;3.42;0.88;;;;;;;;;;4993287;28;20014;-87
2022/06/19 11:21:18;;;;;;;5.75;0.90;;;;;;;;;;4993148;28;20119;-87
2022/06/19 11:23:47;;;;;;;2.50;0.63;;;;;;;;;;4993272;28;20020;-87
2022/06/19 11:26:14;;;;;;;5.07;1.23;;;;;;;;;;4991984;28;20541;-87
2022/06/19 11:28:47;;;;;;;3.50;0.70;;;;;;;;;;4993170;28;20041;-87
2022/06/19 11:31:15;;;;;;;9.88;0.85;;;;;;;;;;4992969;28;20026;-87
2022/06/19 11:33:41;;;;;;;4.13;0.90;;;;;;;;;;4992961;28;20034;-88
2022/06/19 11:36:08;;;;;;;2.72;0.80;;;;;;;;;;4992883;28;20025;-87
2022/06/19 11:38:44;;;;;;;3.13;0.70;;;;;;;;;;4992985;28;20121;-88
2022/06/19 11:41:21;;;;;;;2.95;1.08;;;;;;;;;;4992712;28;20049;-87
2022/06/19 11:43:59;;;;;;;3.08;0.90;;;;;;;;;;4992780;28;20028;-87
2022/06/19 11:46:26;;;;;;;2.13;0.70;;;;;;;;;;4992691;28;20072;-88
2022/06/19 11:48:51;;;;;;;5.03;0.85;;;;;;;;;;4992850;28;20030;-88
2022/06/19 11:51:24;;;;;;;11.57;1.20;;;;;;;;;;4992693;28;20077;-88
2022/06/19 11:53:51;;;;;;;3.63;0.90;;;;;;;;;;4992625;28;20432;-87
2022/06/19 11:56:32;;;;;;;3.42;1.20;;;;;;;;;;4992530;28;20018;-87
2022/06/19 11:58:59;;;;;;;3.70;0.70;;;;;;;;;;4992789;28;20019;-87
2022/06/19 12:01:35;;;;;;;4.22;0.65;;;;;;;;;;4992602;28;20033;-88
2022/06/19 12:04:01;;;;;;;5.95;1.10;;;;;;;;;;4992725;28;20088;-87
2022/06/19 12:06:36;;;;;;;4.25;0.90;;;;;;;;;;4992285;28;20097;-87
2022/06/19 12:09:03;;;;;;;5.38;1.63;;;;;;;;;;4992414;28;20026;-86
2022/06/19 12:11:34;;;;;;;5.40;1.23;;;;;;;;;;4992572;28;20029;-86
2022/06/19 12:14:01;;;;;;;5.45;1.52;;;;;;;;;;4992388;28;20490;-87
2022/06/19 12:16:26;;;;;;;6.22;1.35;;;;;;;;;;4992213;28;20538;-87
2022/06/19 12:18:51;;;;;;;7.23;1.60;;;;;;;;;;4992331;28;20026;-87
2022/06/19 12:21:25;;;;;;;5.53;1.40;;;;;;;;;;5007434;28;20774;-87
2022/06/19 12:23:53;;;;;;;4.05;1.40;;;;;;;;;;4991198;28;20464;-87
2022/06/19 12:26:23;;;;;;;7.25;1.55;;;;;;;;;;4992260;28;20026;-87
2022/06/19 12:28:52;;;;;;;5.60;2.00;;;;;;;;;;4991325;28;20022;-86
2022/06/19 12:31:26;;;;;;;3.42;1.33;;;;;;;;;;4992362;28;20461;-86
2022/06/19 12:33:53;;;;;;;3.80;1.65;;;;;;;;;;4992359;28;20534;-87
2022/06/19 12:36:21;;;;;;;2.22;1.48;;;;;;;;;;4992332;28;20022;-87
2022/06/19 12:38:47;;;;;;;4.82;1.63;;;;;;;;;;4992274;28;20018;-87
2022/06/19 12:41:34;;;;;;;4.72;1.63;;;;;;;;;;4991991;28;20033;-87
2022/06/19 12:44:18;;;;;;;3.70;1.40;;;;;;;;;;4992098;28;20500;-87
2022/06/19 12:46:58;;;;;;;7.00;1.77;;;;;;;;;;4992288;28;20025;-88
2022/06/19 12:49:35;;;;;;;6.25;1.80;;;;;;;;;;4992004;28;20030;-87
2022/06/19 12:52:16;;;;;;;6.78;1.67;;;;;;;;;;4992163;28;20022;-87
2022/06/19 12:54:42;;;;;;;4.60;1.58;;;;;;;;;;4992158;28;20481;-87
2022/06/19 12:57:10;;;;;;;3.50;1.57;;;;;;;;;;4992152;28;20138;-88
2022/06/19 12:59:53;;;;;;;4.97;1.40;;;;;;;;;;4990593;28;20022;-86
2022/06/19 13:02:25;;;;;;;6.82;1.63;;;;;;;;;;5007172;28;20118;-86
2022/06/19 13:04:59;;;;;;;3.75;1.67;;;;;;;;;;4992248;28;20025;-87
2022/06/19 13:07:29;;;;;;;5.15;1.30;;;;;;;;;;4992046;28;20026;-87
2022/06/19 13:09:57;;;;;;;3.30;1.25;;;;;;;;;;4990686;28;20034;-87
2022/06/19 13:12:23;;;;;;;4.88;1.20;;;;;;;;;;4991823;28;20468;-87
2022/06/19 13:14:49;;;;;;;5.20;1.50;;;;;;;;;;4992060;28;20029;-86
2022/06/19 13:17:17;;;;;;;3.88;1.30;;;;;;;;;;4991975;28;20088;-86
2022/06/19 13:19:45;;;;;;;5.35;1.30;;;;;;;;;;4992291;28;20022;-86
2022/06/19 13:22:33;;;;;;;7.85;1.30;;;;;;;;;;4991784;28;20074;-87
2022/06/19 13:25:01;;;;;;;6.63;1.50;;;;;;;;;;4993935;28;20109;-87
2022/06/19 13:27:27;;;;;;;4.57;1.83;;;;;;;;;;4993851;28;20026;-87
2022/06/19 13:29:58;;;;;;;3.70;1.70;;;;;;;;;;4995562;28;20049;-87
2022/06/19 13:32:42;;;;;;;4.90;1.73;;;;;;;;;;4995346;28;20077;-87
2022/06/19 13:35:10;;;;;;;2.90;1.10;;;;;;;;;;4993974;28;20101;-86
2022/06/19 13:37:50;;;;;;;4.03;1.08;;;;;;;;;;4995340;28;20484;-86
2022/06/19 13:40:15;;;;;;;3.45;1.00;;;;;;;;;;4995045;28;20026;-86
2022/06/19 13:42:40;;;;;;;6.43;1.10;;;;;;;;;;4994990;28;20468;-86
2022/06/19 13:45:15;;;;;;;6.43;1.37;;;;;;;;;;4994960;28;20267;-87
2022/06/19 13:47:45;;;;;;;7.60;1.45;;;;;;;;;;4993760;28;20018;-87
2022/06/19 13:50:18;;;;;;;3.55;1.50;;;;;;;;;;4994722;28;20497;-87
2022/06/19 13:52:43;;;;;;;4.65;1.60;;;;;;;;;;4994869;28;20397;-87
2022/06/19 13:55:27;;;;;;;5.83;1.73;;;;;;;;;;4994964;28;20026;-87
2022/06/19 13:57:57;;;;;;;3.30;1.40;;;;;;;;;;4995119;28;20029;-87
2022/06/19 14:00:22;;;;;;;5.10;1.80;;;;;;;;;;4994742;28;20381;-87
2022/06/19 14:02:47;;;;;;;5.15;1.73;;;;;;;;;;4994656;28;20030;-86
2022/06/19 14:05:22;;;;;;;5.60;1.80;;;;;;;;;;4994668;28;20088;-86
2022/06/19 14:07:47;;;;;;;4.85;1.55;;;;;;;;;;5009712;28;20256;-86
2022/06/19 14:10:24;;;;;;;9.30;2.13;;;;;;;;;;4995619;28;20026;-86
2022/06/19 14:12:52;;;;;;;7.45;1.80;;;;;;;;;;4994552;28;20018;-86
2022/06/19 14:15:25;;;;;;;5.50;1.45;;;;;;;;;;4994592;28;20023;-86
2022/06/19 14:18:02;;;;;;;6.63;1.75;;;;;;;;;;4993290;28;20420;-87
2022/06/19 14:20:45;;;;;;;7.57;1.95;;;;;;;;;;4994381;28;20493;-87
2022/06/19 14:23:16;;;;;;;4.68;1.52;;;;;;;;;;4994198;28;20039;-87
2022/06/19 14:25:46;;;;;;;4.65;1.60;;;;;;;;;;4994338;28;20018;-87
2022/06/19 14:28:15;;;;;;;2.80;1.35;;;;;;;;;;4994371;28;20358;-87
2022/06/19 14:30:43;;;;;;;3.72;1.42;;;;;;;;;;4994336;28;20053;-85
2022/06/19 14:33:27;;;;;;;4.20;1.83;;;;;;;;;;4994012;28;20049;-86
2022/06/19 14:36:03;;;;;;;4.80;1.60;;;;;;;;;;4994103;28;20037;-86
2022/06/19 14:38:33;;;;;;;5.70;1.48;;;;;;;;;;4993659;28;20094;-86
2022/06/19 14:41:00;;;;;;;5.10;1.85;;;;;;;;;;4993967;28;20026;-87
2022/06/19 14:43:31;;;;;;;6.90;2.20;;;;;;;;;;4994027;28;20049;-85
2022/06/19 14:46:02;;;;;;;4.93;2.08;;;;;;;;;;4993899;28;20019;-87
2022/06/19 14:48:37;;;;;;;4.75;1.38;;;;;;;;;;4992668;28;20026;-86
2022/06/19 14:51:09;;;;;;;6.45;1.95;;;;;;;;;;4993603;28;20102;-86
2022/06/19 14:53:34;;;;;;;5.43;2.20;;;;;;;;;;4993749;28;20033;-86
2022/06/19 14:56:18;;;;;;;5.90;2.43;;;;;;;;;;4993743;28;20097;-87